Time;durP1;ratioP1;P1;durP2;ratioP2;P2;SDS_P1;SDS_P2;PMS_P1;PMS_P2;Temp;Humidity;BMP_temperature;BMP_pressure;BME280_temperature;BME280_humidity;BME280_pressure;Samples;Min_cycle;Max_cycle;Signal;HPM_P1;HPM_P2
2020/12/27 00:01:09;;;;;;;42.55;9.98;;;;;;;-0.56;86.28;101394.19;1636213;87;21010;-36
2020/12/27 00:03:37;;;;;;;68.70;12.53;;;;;;;-0.57;86.09;101398.39;1636069;87;21070;-35
2020/12/27 00:06:05;;;;;;;407.30;22.60;;;;;;;-0.60;86.05;101404.23;1636129;87;21605;-35
2020/12/27 00:08:32;;;;;;;115.88;13.03;;;;;;;-0.65;86.05;101404.84;1636152;87;21467;-36
2020/12/27 00:11:00;;;;;;;182.37;15.55;;;;;;;-0.69;85.99;101406.36;1636182;87;21389;-35
2020/12/27 00:13:28;;;;;;;987.72;87.72;;;;;;;-0.74;85.98;101412.94;1636160;87;20923;-35
2020/12/27 00:15:56;;;;;;;1583.03;106.25;;;;;;;-0.78;86.07;101427.17;1636198;87;21057;-36
2020/12/27 00:18:24;;;;;;;804.65;48.50;;;;;;;-0.78;86.09;101418.70;1636150;87;21005;-36
2020/12/27 00:20:51;;;;;;;204.68;16.62;;;;;;;-0.74;86.08;101424.38;1636169;87;21027;-35
2020/12/27 00:23:19;;;;;;;159.43;15.28;;;;;;;-0.77;86.03;101420.44;1636244;87;21350;-35
2020/12/27 00:25:48;;;;;;;54.95;11.85;;;;;;;-0.81;85.94;101427.47;1636100;87;21184;-36
2020/12/27 00:28:16;;;;;;;325.70;24.25;;;;;;;-0.88;85.92;101420.84;1636213;87;21002;-35
2020/12/27 00:30:44;;;;;;;70.40;15.03;;;;;;;-0.93;85.95;101415.94;1636074;87;20994;-36
2020/12/27 00:33:12;;;;;;;30.20;11.43;;;;;;;-0.97;85.99;101431.01;1636377;87;21046;-35
2020/12/27 00:35:40;;;;;;;26.82;12.88;;;;;;;-1.02;85.98;101429.52;1636270;87;22544;-36
2020/12/27 00:38:08;;;;;;;24.70;12.25;;;;;;;-1.07;85.89;101420.83;1636130;87;20974;-37
2020/12/27 00:40:36;;;;;;;26.23;11.88;;;;;;;-1.14;86.02;101427.68;1636048;87;20994;-35
2020/12/27 00:43:05;;;;;;;19.80;12.30;;;;;;;-1.25;86.00;101419.60;1636160;87;20915;-34
2020/12/27 00:45:33;;;;;;;22.42;11.97;;;;;;;-1.34;86.26;101423.86;1636232;87;21089;-36
2020/12/27 00:48:01;;;;;;;106.63;15.03;;;;;;;-1.40;86.25;101428.25;1636180;87;21123;-37
2020/12/27 00:50:29;;;;;;;395.77;30.82;;;;;;;-1.47;86.37;101426.23;1636138;87;21065;-35
2020/12/27 00:52:57;;;;;;;451.55;30.23;;;;;;;-1.52;86.39;101436.17;1636222;87;21018;-34
2020/12/27 00:55:25;;;;;;;177.62;16.35;;;;;;;-1.56;86.43;101434.29;1636179;87;21014;-36
2020/12/27 00:57:54;;;;;;;377.73;22.77;;;;;;;-1.58;86.57;101440.97;1636214;87;21064;-36
2020/12/27 01:00:22;;;;;;;226.82;17.42;;;;;;;-1.62;86.57;101436.13;1636216;87;22344;-35
2020/12/27 01:02:51;;;;;;;238.72;20.48;;;;;;;-1.62;86.53;101438.67;1636091;87;20970;-34
2020/12/27 01:05:37;;;;;;;359.75;23.52;;;;;;;-1.65;86.55;101437.27;1636281;87;26682;-35
2020/12/27 01:08:04;;;;;;;23.57;11.33;;;;;;;-1.70;86.48;101441.26;1630579;87;21010;-35
2020/12/27 01:10:33;;;;;;;34.55;11.53;;;;;;;-1.75;86.44;101442.30;1625962;88;21086;-35
2020/12/27 01:13:02;;;;;;;34.43;10.70;;;;;;;-1.82;86.43;101446.62;1626043;88;22513;-37
2020/12/27 01:15:30;;;;;;;25.65;9.88;;;;;;;-1.85;86.52;101441.78;1625977;88;20977;-37
2020/12/27 01:18:11;;;;;;;42.93;12.93;;;;;;;-1.84;86.52;101443.52;1853546;77;23192;-35
2020/12/27 01:20:41;;;;;;;233.60;21.00;;;;;;;-1.92;86.53;101448.22;1824807;78;21382;-36
2020/12/27 01:23:09;;;;;;;274.15;20.95;;;;;;;-1.96;86.59;101447.22;1825694;78;22842;-35
2020/12/27 01:25:38;;;;;;;32.50;11.97;;;;;;;-1.98;86.71;101444.13;1789104;80;20932;-35
2020/12/27 01:28:08;;;;;;;29.57;11.38;;;;;;;-2.04;86.76;101449.38;1789255;80;21421;-36
2020/12/27 01:30:36;;;;;;;34.63;10.78;;;;;;;-2.07;86.87;101455.95;1789054;80;20964;-35
2020/12/27 01:33:05;;;;;;;32.95;11.45;;;;;;;-2.14;86.88;101458.99;1789141;80;20949;-34
2020/12/27 01:35:46;;;;;;;19.85;10.88;;;;;;;-2.20;87.02;101454.09;1787634;80;21393;-36
2020/12/27 01:38:14;;;;;;;16.30;9.90;;;;;;;-2.23;87.27;101461.94;1758740;80;21603;-35
2020/12/27 01:40:41;;;;;;;21.73;12.55;;;;;;;-2.26;87.35;101460.52;1789096;80;21000;-35
2020/12/27 01:43:10;;;;;;;28.67;13.48;;;;;;;-2.31;87.43;101461.55;1789072;80;20921;-36
2020/12/27 01:45:37;;;;;;;24.47;11.57;;;;;;;-2.38;87.51;101457.86;1789188;80;20968;-35
2020/12/27 01:48:11;;;;;;;17.55;10.63;;;;;;;-2.46;87.78;101451.50;1789196;80;22207;-35
2020/12/27 01:50:40;;;;;;;32.90;12.53;;;;;;;-2.52;87.84;101455.00;1789028;80;20992;-36
2020/12/27 01:53:08;;;;;;;90.53;15.28;;;;;;;-2.62;87.92;101452.01;1758741;80;21055;-37
2020/12/27 01:55:36;;;;;;;86.80;15.72;;;;;;;-2.69;88.09;101456.27;1734121;80;21008;-38
2020/12/27 01:58:17;;;;;;;275.25;24.57;;;;;;;-2.70;88.25;101463.81;1733193;80;21000;-35
2020/12/27 02:00:58;;;;;;;62.78;15.60;;;;;;;-2.72;88.46;101473.00;1788358;80;21124;-37
2020/12/27 02:03:31;;;;;;;189.75;20.08;;;;;;;-2.74;88.54;101471.64;1758960;80;20932;-36
2020/12/27 02:06:01;;;;;;;201.67;23.67;;;;;;;-2.83;88.51;101474.55;1788439;80;21036;-36
2020/12/27 02:08:28;;;;;;;286.23;23.57;;;;;;;-2.93;88.52;101479.53;1758704;80;20881;-35
2020/12/27 02:10:59;;;;;;;248.95;27.93;;;;;;;-3.01;88.54;101480.80;1787754;80;21000;-36
2020/12/27 02:13:27;;;;;;;95.15;17.27;;;;;;;-3.13;88.56;101487.75;1789104;80;21005;-35
2020/12/27 02:15:55;;;;;;;45.63;14.98;;;;;;;-3.25;88.65;101488.81;1789066;80;21189;-38
2020/12/27 02:18:22;;;;;;;116.03;15.15;;;;;;;-3.33;88.87;101490.91;1781685;80;20882;-35
2020/12/27 02:20:52;;;;;;;47.48;14.10;;;;;;;-3.41;89.03;101487.10;1781188;80;20937;-34
2020/12/27 02:23:21;;;;;;;26.65;13.00;;;;;;;-3.42;89.32;101494.22;1781462;80;21028;-36
2020/12/27 02:25:54;;;;;;;35.15;14.53;;;;;;;-3.42;89.65;101488.27;1779200;80;21387;-35
2020/12/27 02:28:24;;;;;;;252.20;27.58;;;;;;;-3.46;89.71;101492.31;1779855;80;21502;-37
2020/12/27 02:30:54;;;;;;;145.95;17.48;;;;;;;-3.48;89.85;101489.68;1780492;80;21423;-36
2020/12/27 02:33:22;;;;;;;48.68;11.38;;;;;;;-3.44;90.00;101487.31;1780835;80;20925;-35
2020/12/27 02:35:54;;;;;;;24.75;11.80;;;;;;;-3.38;90.38;101483.88;1777644;80;21305;-37
2020/12/27 02:38:22;;;;;;;25.90;10.63;;;;;;;-3.32;90.51;101494.34;1780743;80;21372;-35
2020/12/27 02:40:51;;;;;;;19.98;9.28;;;;;;;-3.25;90.77;101496.41;1780632;80;20933;-35
2020/12/27 02:43:21;;;;;;;21.07;10.90;;;;;;;-3.17;90.95;101498.95;1779673;80;20925;-35
2020/12/27 02:45:51;;;;;;;23.87;11.38;;;;;;;-3.08;91.01;101499.00;1780800;80;21080;-35
2020/12/27 02:48:27;;;;;;;42.45;14.03;;;;;;;-3.03;91.02;101488.71;1745572;80;20992;-35
2020/12/27 02:50:57;;;;;;;116.53;15.85;;;;;;;-3.00;91.00;101495.20;1780689;80;22975;-36
2020/12/27 02:53:26;;;;;;;159.65;14.95;;;;;;;-2.96;90.99;101506.39;1780648;80;21028;-35
2020/12/27 02:55:54;;;;;;;381.98;26.60;;;;;;;-2.98;90.98;101511.36;1780694;80;21056;-35
2020/12/27 02:58:22;;;;;;;53.85;11.53;;;;;;;-3.03;90.88;101516.58;1780824;80;20929;-35
2020/12/27 03:00:52;;;;;;;32.88;10.10;;;;;;;-3.10;90.93;101519.17;1780694;80;20885;-36
2020/12/27 03:03:26;;;;;;;16.65;9.85;;;;;;;-3.13;91.07;101528.28;1780763;80;22399;-36
2020/12/27 03:05:55;;;;;;;34.23;11.70;;;;;;;-3.15;91.28;101531.98;1779721;80;21024;-36
2020/12/27 03:08:23;;;;;;;95.67;13.90;;;;;;;-3.14;91.55;101536.67;1780671;80;21036;-35
2020/12/27 03:10:56;;;;;;;92.02;13.80;;;;;;;-3.14;91.63;101549.34;1776482;80;21015;-36
2020/12/27 03:13:24;;;;;;;391.15;23.32;;;;;;;-3.17;91.57;101542.44;1780787;80;20974;-35
2020/12/27 03:15:54;;;;;;;428.35;27.05;;;;;;;-3.23;91.48;101555.63;1780765;80;21199;-36
2020/12/27 03:18:41;;;;;;;434.30;26.73;;;;;;;-3.33;91.41;101550.44;1793966;80;21075;-35
2020/12/27 03:21:14;;;;;;;406.75;23.92;;;;;;;-3.39;91.46;101559.37;1790797;80;20992;-36
2020/12/27 03:23:42;;;;;;;65.08;11.33;;;;;;;-3.47;91.46;101559.79;1794965;80;20987;-35
2020/12/27 03:26:11;;;;;;;114.85;15.13;;;;;;;-3.52;91.50;101558.66;1793901;80;21015;-34
2020/12/27 03:28:40;;;;;;;216.35;17.30;;;;;;;-3.51;91.73;101557.02;1795006;80;22717;-36
2020/12/27 03:31:08;;;;;;;242.50;19.07;;;;;;;-3.50;91.80;101563.42;1794819;80;21244;-36
2020/12/27 03:33:37;;;;;;;143.22;18.80;;;;;;;-3.49;91.79;101560.51;1794880;80;20985;-35
2020/12/27 03:36:10;;;;;;;99.35;15.08;;;;;;;-3.50;91.80;101568.48;1794266;80;20984;-36
2020/12/27 03:38:42;;;;;;;51.75;13.58;;;;;;;-3.58;91.58;101578.58;1793926;80;20980;-36
2020/12/27 03:41:12;;;;;;;31.50;12.75;;;;;;;-3.68;91.54;101577.55;1792933;80;22200;-35
2020/12/27 03:43:48;;;;;;;;;;;;;;;-3.79;91.47;101587.05;1796935;80;21083;-34
2020/12/27 03:46:17;;;;;;;67.40;15.93;;;;;;;-3.89;91.56;101586.92;1794054;80;20162;-34
2020/12/27 03:48:49;;;;;;;60.90;15.65;;;;;;;-3.93;91.75;101584.97;1793014;80;20944;-36
2020/12/27 03:51:34;;;;;;;57.70;15.55;;;;;;;-3.97;91.85;101597.86;1729737;82;21038;-35
2020/12/27 03:54:02;;;;;;;35.33;13.68;;;;;;;-4.00;91.91;101596.78;1774335;80;21135;-34
2020/12/27 03:56:48;;;;;;;;;;;;;;;-4.08;91.77;101597.22;1797395;80;20983;-34
2020/12/27 03:59:18;;;;;;;34.60;15.20;;;;;;;-4.21;91.67;101603.19;1779774;80;20119;-36
2020/12/27 04:01:48;;;;;;;26.20;14.75;;;;;;;-4.24;91.87;101599.22;1793852;80;21447;-35
2020/12/27 04:04:17;;;;;;;27.73;14.33;;;;;;;-4.22;92.11;101607.77;1794689;80;20980;-35
2020/12/27 04:06:46;;;;;;;37.93;14.13;;;;;;;-4.23;92.07;101617.78;1792547;80;21376;-34
2020/12/27 04:09:16;;;;;;;30.05;16.12;;;;;;;-4.24;92.10;101622.36;1793369;80;21553;-35
2020/12/27 04:11:44;;;;;;;32.45;16.48;;;;;;;-4.26;92.17;101626.45;1794815;80;20988;-35
2020/12/27 04:14:12;;;;;;;30.57;15.88;;;;;;;-4.26;92.32;101631.13;1794863;80;20992;-35
2020/12/27 04:16:40;;;;;;;31.02;16.57;;;;;;;-4.26;92.35;101628.98;1794776;80;20976;-35
2020/12/27 04:19:08;;;;;;;35.00;16.15;;;;;;;-4.29;92.34;101636.38;1747256;80;21453;-35
2020/12/27 04:21:37;;;;;;;32.28;14.55;;;;;;;-4.31;92.38;101648.92;1737515;82;20987;-36
2020/12/27 04:24:07;;;;;;;29.90;15.23;;;;;;;-4.34;92.45;101649.63;1738745;82;21041;-36
2020/12/27 04:26:38;;;;;;;35.75;14.53;;;;;;;-4.36;92.44;101646.50;1739293;82;21018;-34
2020/12/27 04:29:05;;;;;;;54.45;16.50;;;;;;;-4.40;92.38;101651.78;1739454;82;21108;-35
2020/12/27 04:31:34;;;;;;;74.58;16.75;;;;;;;-4.48;92.29;101648.77;1739511;82;22235;-35
2020/12/27 04:34:07;;;;;;;138.85;20.50;;;;;;;-4.47;92.42;101653.05;1737800;82;21022;-35
2020/12/27 04:36:37;;;;;;;131.97;20.52;;;;;;;-4.47;92.48;101663.53;1739062;82;20986;-36
2020/12/27 04:39:06;;;;;;;83.35;18.45;;;;;;;-4.45;92.54;101667.03;1739254;82;21018;-37
2020/12/27 04:41:35;;;;;;;81.17;16.30;;;;;;;-4.45;92.50;101673.34;1739267;81;20958;-35
2020/12/27 04:44:04;;;;;;;50.15;15.15;;;;;;;-4.52;92.36;101669.96;1710795;82;21289;-34
2020/12/27 04:46:33;;;;;;;122.67;19.62;;;;;;;-4.58;92.34;101673.38;1739404;82;21005;-35
2020/12/27 04:49:02;;;;;;;66.82;16.40;;;;;;;-4.61;92.45;101676.58;1739275;82;20935;-35
2020/12/27 04:51:32;;;;;;;51.25;15.10;;;;;;;-4.58;92.62;101688.55;1737875;82;21422;-35
2020/12/27 04:54:08;;;;;;;52.05;15.00;;;;;;;-4.64;92.55;101687.38;1775020;80;21481;-35
2020/12/27 04:56:42;;;;;;;70.90;14.95;;;;;;;-4.69;92.49;101684.07;1711971;80;22270;-36
2020/12/27 04:59:14;;;;;;;72.17;14.75;;;;;;;-4.68;92.63;101695.93;1752450;80;21002;-35
2020/12/27 05:01:44;;;;;;;63.48;14.63;;;;;;;-4.71;92.53;101697.00;1778484;80;20987;-35
2020/12/27 05:04:24;;;;;;;59.73;15.72;;;;;;;-4.81;92.31;101696.80;1777215;80;20999;-36
2020/12/27 05:06:56;;;;;;;40.78;15.25;;;;;;;-4.89;92.33;101694.17;1777983;80;21046;-35
2020/12/27 05:09:26;;;;;;;30.72;16.50;;;;;;;-4.92;92.52;101697.36;1777562;80;21109;-36
2020/12/27 05:11:56;;;;;;;57.48;17.23;;;;;;;-4.88;92.73;101697.19;1778732;80;21506;-36
2020/12/27 05:14:27;;;;;;;34.65;16.07;;;;;;;-4.82;92.86;101696.31;1778653;80;21038;-34
2020/12/27 05:16:58;;;;;;;33.25;14.73;;;;;;;-4.75;92.88;101697.18;1750162;80;20991;-35
2020/12/27 05:19:28;;;;;;;19.67;10.30;;;;;;;-4.74;92.76;101701.45;1785499;80;20927;-34
2020/12/27 05:24:30;;;;;;;27.05;12.95;;;;;;;-4.72;92.67;101706.22;1776936;79;22763;-35
2020/12/27 05:26:59;;;;;;;25.27;14.33;;;;;;;-4.75;92.73;101713.61;1719582;82;20968;-34
2020/12/27 05:29:32;;;;;;;24.95;14.13;;;;;;;-4.76;92.76;101719.44;1745162;82;21190;-34
2020/12/27 05:32:05;;;;;;;26.85;13.72;;;;;;;-4.70;92.90;101731.20;1748529;82;21010;-35
2020/12/27 05:34:34;;;;;;;25.90;13.50;;;;;;;-4.65;92.97;101731.13;1699299;82;20995;-34
2020/12/27 05:37:20;;;;;;;26.70;13.20;;;;;;;-4.58;92.99;101731.52;1749929;81;20908;-35
2020/12/27 05:40:07;;;;;;;32.80;14.23;;;;;;;-4.47;92.99;101729.27;1890112;76;23155;-33
2020/12/27 05:42:48;;;;;;;28.60;14.20;;;;;;;-4.47;92.92;101732.69;1847046;77;20915;-36
2020/12/27 05:45:19;;;;;;;28.95;12.95;;;;;;;-4.47;92.77;101739.38;1860892;77;21192;-34
2020/12/27 05:47:48;;;;;;;35.52;13.28;;;;;;;-4.51;92.69;101741.23;1861055;77;21557;-33
2020/12/27 05:50:18;;;;;;;27.30;12.95;;;;;;;-4.57;92.55;101747.16;1861029;77;20883;-33
2020/12/27 05:52:49;;;;;;;27.05;12.13;;;;;;;-4.68;92.39;101746.07;1860990;77;21078;-34
2020/12/27 05:55:22;;;;;;;27.20;13.53;;;;;;;-4.72;92.44;101754.23;1860333;77;21413;-34
2020/12/27 05:57:55;;;;;;;23.30;13.38;;;;;;;-4.73;92.66;101758.80;1861019;77;22143;-34
2020/12/27 06:00:24;;;;;;;24.18;13.00;;;;;;;-4.74;92.69;101760.84;1860219;77;20931;-34
2020/12/27 06:02:59;;;;;;;23.85;13.05;;;;;;;-4.81;92.56;101765.87;1859940;77;21001;-37
2020/12/27 06:05:57;;;;;;;30.00;11.97;;;;;;;-4.88;92.51;101765.40;1860737;77;20986;-36
2020/12/27 06:08:38;;;;;;;25.27;11.95;;;;;;;-4.96;92.38;101762.36;1860631;77;20969;-36
2020/12/27 06:11:13;;;;;;;24.52;11.85;;;;;;;-5.09;92.16;101768.26;1858375;77;21376;-37
2020/12/27 06:14:16;;;;;;;65.00;13.65;;;;;;;-5.21;92.06;101770.44;1856777;77;21029;-35
2020/12/27 06:17:13;;;;;;;47.85;13.03;;;;;;;-5.28;92.06;101773.73;1860935;77;21044;-35
2020/12/27 06:20:01;;;;;;;51.17;12.93;;;;;;;-5.34;92.15;101783.03;1794863;77;27962;-36
2020/12/27 06:22:31;;;;;;;52.03;12.82;;;;;;;-5.37;92.25;101788.73;1781476;80;21006;-33
2020/12/27 06:25:13;;;;;;;38.10;13.98;;;;;;;-5.29;92.30;101795.97;1762551;80;21203;-34
2020/12/27 06:27:41;;;;;;;30.92;13.05;;;;;;;-5.30;92.23;101798.87;1782091;80;21073;-35
2020/12/27 06:30:20;;;;;;;46.98;15.23;;;;;;;-5.34;92.17;101800.70;1782349;80;20911;-34
2020/12/27 06:32:56;;;;;;;50.65;18.12;;;;;;;-5.35;92.26;101795.16;1758772;80;20947;-34
2020/12/27 06:35:33;;;;;;;40.33;16.85;;;;;;;-5.34;92.36;101794.39;1782488;80;20931;-35
2020/12/27 06:38:04;;;;;;;37.08;16.50;;;;;;;-5.30;92.50;101805.17;1781935;80;21318;-32
2020/12/27 06:40:39;;;;;;;39.80;16.17;;;;;;;-5.26;92.65;101812.59;1752748;80;20904;-34
2020/12/27 06:43:18;;;;;;;26.05;15.55;;;;;;;-5.21;92.76;101812.50;1781253;80;21010;-35
2020/12/27 06:45:48;;;;;;;28.85;14.50;;;;;;;-5.13;92.95;101813.03;1780066;80;21022;-34
2020/12/27 06:48:36;;;;;;;29.52;15.28;;;;;;;-5.03;93.11;101813.27;1780806;80;20916;-34
2020/12/27 06:51:11;;;;;;;27.45;15.00;;;;;;;-4.93;93.22;101817.73;1756801;80;21221;-32
2020/12/27 06:53:44;;;;;;;28.07;16.70;;;;;;;-4.80;93.34;101827.41;1782219;80;20884;-35
2020/12/27 06:56:24;;;;;;;33.67;15.08;;;;;;;-4.65;93.53;101827.55;1780820;80;20975;-34
2020/12/27 06:59:11;;;;;;;24.50;12.80;;;;;;;-4.40;93.64;101830.03;1832329;77;28057;-34
2020/12/27 07:01:41;;;;;;;22.75;12.13;;;;;;;-4.24;93.57;101826.84;1817717;78;20946;-35
2020/12/27 07:04:17;;;;;;;23.60;13.68;;;;;;;-4.00;93.49;101834.23;1817921;78;22247;-35
2020/12/27 07:06:47;;;;;;;26.57;13.85;;;;;;;-3.83;93.42;101840.34;1817619;79;21010;-34
2020/12/27 07:09:21;;;;;;;26.62;13.38;;;;;;;-3.75;93.27;101840.83;1817751;79;20939;-35
2020/12/27 07:12:11;;;;;;;23.47;12.40;;;;;;;-3.65;92.97;101838.48;1818044;79;21006;-35
2020/12/27 07:14:41;;;;;;;29.85;14.75;;;;;;;-3.65;92.97;101838.48;1817702;79;21311;-35
2020/12/27 07:17:13;;;;;;;25.17;12.73;;;;;;;-3.51;93.37;101838.92;1817772;78;22207;-34
2020/12/27 07:19:40;;;;;;;27.87;12.45;;;;;;;-3.35;93.40;101842.00;1788510;79;21017;-33
2020/12/27 07:22:10;;;;;;;20.52;11.73;;;;;;;-3.21;93.39;101849.16;1817741;79;20919;-34
2020/12/27 07:24:39;;;;;;;21.77;12.18;;;;;;;-3.12;93.29;101852.64;1817607;79;21386;-34
2020/12/27 07:27:10;;;;;;;26.42;12.25;;;;;;;-3.03;93.24;101856.13;1817773;79;21069;-34
2020/12/27 07:29:38;;;;;;;23.40;11.80;;;;;;;-2.92;93.25;101862.70;1817637;79;21432;-34
2020/12/27 07:32:06;;;;;;;27.48;12.82;;;;;;;-2.81;93.21;101866.28;1817668;79;20978;-33
2020/12/27 07:34:34;;;;;;;23.30;10.98;;;;;;;-2.72;93.17;101861.73;1817642;79;21004;-34
2020/12/27 07:37:06;;;;;;;27.55;11.40;;;;;;;-2.66;93.04;101870.95;1817651;79;20895;-34
2020/12/27 07:39:54;;;;;;;22.42;12.28;;;;;;;-2.56;92.97;101870.25;1817573;78;20982;-36
2020/12/27 07:42:30;;;;;;;20.90;10.63;;;;;;;-2.48;92.93;101872.45;1817799;79;21357;-34
2020/12/27 07:45:05;;;;;;;20.02;10.93;;;;;;;-2.36;92.88;101881.16;1817555;79;20907;-35
2020/12/27 07:47:37;;;;;;;17.20;10.18;;;;;;;-2.25;92.67;101882.15;1817755;79;21584;-35
2020/12/27 07:50:13;;;;;;;15.40;9.70;;;;;;;-2.15;91.86;101886.94;1817736;79;20987;-35
2020/12/27 07:52:54;;;;;;;14.10;9.48;;;;;;;-2.04;91.60;101885.91;1817667;79;20998;-36
2020/12/27 07:55:39;;;;;;;12.90;9.70;;;;;;;-1.97;91.22;101892.20;1817691;79;21239;-33
2020/12/27 07:58:07;;;;;;;15.63;9.57;;;;;;;-1.90;91.32;101892.13;1814058;78;20990;-34
2020/12/27 08:00:37;;;;;;;18.35;10.23;;;;;;;-1.83;90.39;101894.24;1809298;79;20963;-34
2020/12/27 08:03:07;;;;;;;15.40;8.63;;;;;;;-1.76;89.47;101889.11;1809361;79;20998;-36
2020/12/27 08:05:38;;;;;;;19.30;11.05;;;;;;;-1.70;89.01;101897.44;1809230;79;20970;-35
2020/12/27 08:08:09;;;;;;;21.07;11.03;;;;;;;-1.65;88.64;101899.45;1809340;79;21362;-35
2020/12/27 08:10:41;;;;;;;24.55;10.70;;;;;;;-1.60;87.59;101901.84;1808787;79;20915;-36
2020/12/27 08:13:10;;;;;;;18.82;9.73;;;;;;;-1.54;87.15;101909.31;1808812;79;21521;-35
2020/12/27 08:15:40;;;;;;;16.20;9.05;;;;;;;-1.50;85.95;101906.17;1808688;79;20912;-37
2020/12/27 08:18:09;;;;;;;17.80;9.40;;;;;;;-1.43;85.99;101914.59;1808844;79;21022;-36
2020/12/27 08:20:49;;;;;;;18.35;9.43;;;;;;;-1.36;85.84;101920.89;1808843;79;21428;-36
2020/12/27 08:23:17;;;;;;;19.90;10.03;;;;;;;-1.30;85.59;101917.41;1808685;79;20987;-38
2020/12/27 08:25:45;;;;;;;15.08;8.70;;;;;;;-1.22;85.21;101917.41;1808849;79;20983;-36
2020/12/27 08:28:15;;;;;;;18.05;9.33;;;;;;;-1.16;84.51;101923.22;1808734;79;21007;-35
2020/12/27 08:30:46;;;;;;;14.85;8.78;;;;;;;-1.09;84.49;101925.28;1808759;79;21013;-37
2020/12/27 08:33:17;;;;;;;12.47;8.28;;;;;;;-1.01;84.22;101932.05;1808864;79;22212;-36
2020/12/27 08:35:47;;;;;;;17.17;9.35;;;;;;;-0.93;84.01;101924.42;1808678;79;21046;-36
2020/12/27 08:38:32;;;;;;;12.20;8.68;;;;;;;-0.85;83.88;101909.98;1808855;79;21505;-35
2020/12/27 08:41:30;;;;;;;15.88;9.35;;;;;;;-0.78;83.39;101907.81;1809028;79;20959;-36
2020/12/27 08:44:10;;;;;;;18.77;8.80;;;;;;;-0.71;81.22;101905.60;1808883;79;20959;-36
2020/12/27 08:46:39;;;;;;;13.10;8.15;;;;;;;-0.68;81.06;101915.52;1808720;79;21193;-35
2020/12/27 08:49:33;;;;;;;16.87;9.58;;;;;;;-0.63;81.16;101916.66;1808715;79;20979;-36
2020/12/27 08:52:15;;;;;;;22.60;9.63;;;;;;;-0.58;80.91;101910.50;1797143;79;20876;-36
2020/12/27 08:54:44;;;;;;;16.48;9.23;;;;;;;-0.48;80.97;101911.46;1808739;79;21045;-33
2020/12/27 08:57:11;;;;;;;18.32;9.98;;;;;;;-0.39;80.83;101908.48;1808867;79;20952;-35
2020/12/27 08:59:39;;;;;;;14.10;9.15;;;;;;;-0.32;80.61;101908.01;1752602;79;21191;-35
2020/12/27 09:02:10;;;;;;;31.02;9.45;;;;;;;-0.24;80.35;101912.59;1777798;79;21026;-34
2020/12/27 09:04:38;;;;;;;18.02;9.68;;;;;;;-0.13;80.00;101910.58;1808716;79;20971;-34
2020/12/27 09:07:06;;;;;;;16.12;9.05;;;;;;;-0.05;79.26;101909.27;1808823;79;20986;-35
2020/12/27 09:09:35;;;;;;;13.60;8.70;;;;;;;0.04;79.29;101912.66;1808798;79;21002;-35
2020/12/27 09:12:11;;;;;;;16.20;9.00;;;;;;;0.11;79.13;101910.49;1808797;79;22210;-34
2020/12/27 09:14:40;;;;;;;15.00;9.95;;;;;;;0.22;78.87;101911.00;1808845;79;20937;-37
2020/12/27 09:17:12;;;;;;;15.05;10.05;;;;;;;0.30;78.80;101910.09;1808669;79;20927;-35
2020/12/27 09:19:46;;;;;;;18.75;10.23;;;;;;;0.35;78.25;101912.84;1778849;79;21808;-37
2020/12/27 09:22:14;;;;;;;16.20;9.38;;;;;;;0.43;77.99;101913.68;1808778;79;20951;-36
2020/12/27 09:24:42;;;;;;;13.28;9.43;;;;;;;0.48;77.35;101916.84;1808542;79;21184;-35
2020/12/27 09:27:10;;;;;;;15.30;8.88;;;;;;;0.54;77.30;101914.59;1808777;79;20931;-36
2020/12/27 09:29:38;;;;;;;13.80;9.45;;;;;;;0.62;76.84;101915.81;1808686;79;20903;-34
2020/12/27 09:32:13;;;;;;;13.15;8.93;;;;;;;0.74;76.40;101921.87;1808741;79;20959;-35
2020/12/27 09:34:41;;;;;;;18.25;9.53;;;;;;;0.83;76.36;101923.97;1808836;79;21159;-36
2020/12/27 09:37:17;;;;;;;14.78;8.68;;;;;;;0.90;75.82;101923.86;1808719;79;21189;-38
2020/12/27 09:39:49;;;;;;;12.35;8.38;;;;;;;0.95;75.47;101927.47;1808780;79;20970;-37
2020/12/27 09:42:24;;;;;;;19.17;8.80;;;;;;;1.03;75.24;101930.38;1807459;79;20959;-36
2020/12/27 09:44:53;;;;;;;15.20;9.05;;;;;;;1.07;74.75;101930.55;1808769;79;21410;-36
2020/12/27 09:47:23;;;;;;;15.93;9.75;;;;;;;1.19;74.29;101927.67;1808531;79;20915;-37
2020/12/27 09:50:08;;;;;;;20.17;9.55;;;;;;;1.33;74.14;101923.59;1808738;79;21184;-36
2020/12/27 09:52:45;;;;;;;13.10;9.08;;;;;;;1.39;73.62;101920.91;1808673;79;20963;-35
2020/12/27 09:55:14;;;;;;;15.00;8.10;;;;;;;1.45;72.83;101921.97;1808867;79;20999;-36
2020/12/27 09:57:42;;;;;;;13.28;8.53;;;;;;;1.52;71.96;101917.58;1808708;79;21509;-36
2020/12/27 10:00:10;;;;;;;14.05;9.25;;;;;;;1.57;72.15;101916.09;1812083;79;20956;-36
2020/12/27 10:02:38;;;;;;;11.55;8.40;;;;;;;1.64;71.83;101913.39;1812122;79;22701;-36
2020/12/27 10:05:10;;;;;;;14.35;8.73;;;;;;;1.72;71.82;101911.63;1812080;79;21034;-35
2020/12/27 10:07:39;;;;;;;13.20;8.18;;;;;;;1.79;71.44;101914.44;1812119;79;21059;-36
2020/12/27 10:10:09;;;;;;;11.93;8.05;;;;;;;1.82;70.45;101916.72;1811948;79;20967;-35
2020/12/27 10:12:39;;;;;;;12.90;8.35;;;;;;;1.98;70.85;101914.38;1812140;79;20888;-37
2020/12/27 10:15:09;;;;;;;11.30;7.60;;;;;;;2.12;70.62;101905.98;1811974;79;21190;-38
2020/12/27 10:17:37;;;;;;;16.57;9.40;;;;;;;2.27;70.52;101906.11;1811953;79;21481;-36
2020/12/27 10:20:10;;;;;;;13.40;8.48;;;;;;;2.38;70.64;101912.92;1812055;79;20915;-38
2020/12/27 10:22:35;;;;;;;11.73;7.95;;;;;;;2.56;70.25;101912.35;1811993;79;21106;-36
2020/12/27 10:25:05;;;;;;;14.85;9.48;;;;;;;2.69;69.29;101906.02;1812240;79;20903;-36
2020/12/27 10:27:33;;;;;;;12.07;7.75;;;;;;;2.76;69.05;101904.95;1812155;78;21147;-36
2020/12/27 10:30:02;;;;;;;17.55;8.40;;;;;;;2.78;69.02;101905.48;1812000;79;20996;-37
2020/12/27 10:32:30;;;;;;;13.53;8.10;;;;;;;2.81;68.54;101896.64;1812068;79;20982;-35
2020/12/27 10:34:58;;;;;;;10.30;7.67;;;;;;;2.75;67.56;101897.70;1812106;79;20943;-36
2020/12/27 10:37:26;;;;;;;13.35;8.28;;;;;;;2.69;66.92;101898.34;1812161;79;20959;-37
2020/12/27 10:39:54;;;;;;;12.98;8.00;;;;;;;2.68;66.84;101897.02;1811969;79;21074;-36
2020/12/27 10:42:22;;;;;;;12.33;7.55;;;;;;;2.75;66.79;101884.92;1812076;79;20904;-35
2020/12/27 10:44:50;;;;;;;11.10;7.85;;;;;;;2.79;66.46;101884.64;1812207;79;20982;-34
2020/12/27 10:47:18;;;;;;;12.20;8.00;;;;;;;2.81;66.49;101891.53;1811993;79;20907;-35
2020/12/27 10:49:46;;;;;;;13.18;7.70;;;;;;;2.87;66.30;101887.91;1811995;79;20912;-37
2020/12/27 10:52:13;;;;;;;10.58;7.80;;;;;;;2.95;66.20;101879.66;1812048;79;21187;-36
2020/12/27 10:54:42;;;;;;;12.47;7.40;;;;;;;2.99;65.86;101882.78;1812009;79;21011;-35
2020/12/27 10:57:10;;;;;;;14.13;8.15;;;;;;;2.99;65.75;101887.91;1812195;78;20896;-34
2020/12/27 10:59:38;;;;;;;11.10;6.80;;;;;;;2.99;65.43;101887.48;1809760;79;20895;-35
2020/12/27 11:02:06;;;;;;;20.15;7.87;;;;;;;3.13;65.74;101875.17;1808751;79;21034;-35
2020/12/27 11:04:34;;;;;;;10.75;7.50;;;;;;;3.35;65.63;101881.04;1808656;79;22601;-36
2020/12/27 11:07:02;;;;;;;19.70;8.95;;;;;;;3.55;64.81;101880.84;1808574;79;20923;-36
2020/12/27 11:09:29;;;;;;;11.83;7.15;;;;;;;3.73;64.34;101891.71;1808691;79;20919;-36
2020/12/27 11:11:58;;;;;;;16.67;8.05;;;;;;;3.86;63.29;101886.97;1808685;79;21005;-36
2020/12/27 11:14:26;;;;;;;20.25;8.98;;;;;;;3.83;63.28;101894.16;1808710;79;20951;-36
2020/12/27 11:16:54;;;;;;;17.57;8.35;;;;;;;3.86;63.25;101894.27;1808728;79;21425;-36
2020/12/27 11:19:22;;;;;;;12.18;7.67;;;;;;;3.97;63.21;101890.77;1808503;79;20927;-36
2020/12/27 11:21:49;;;;;;;12.88;7.42;;;;;;;4.09;62.94;101894.52;1808664;79;21377;-37
2020/12/27 11:24:18;;;;;;;14.53;8.30;;;;;;;4.08;61.65;101894.06;1808643;79;20955;-37
2020/12/27 11:26:46;;;;;;;13.95;8.00;;;;;;;4.08;61.65;101894.06;1808748;79;20928;-36
2020/12/27 11:29:13;;;;;;;12.28;7.87;;;;;;;4.10;61.52;101901.39;1808740;79;21337;-37
2020/12/27 11:31:43;;;;;;;12.47;7.78;;;;;;;4.21;61.71;101894.92;1808521;79;20935;-37
2020/12/27 11:34:11;;;;;;;9.35;8.15;;;;;;;4.21;61.71;101894.92;1808713;79;21022;-36